Veterans Admin Fac, Alabama
Current Conditions -  °F | °C
As of 1:55 AM on Friday 19 Dec 2014 (Local Time) from KAUO Reporting Station
Clear Clear  
Wind Chill: 32°   Ceiling: Unl
Heat Index: 37°   Visibility: 10mi
Dew Point: 28°   Wind: 7mph
Humidity: 70%   Direction: 360°N
Pressure: 30.16"   Gusts: NA
Location:  32.4242°N, 85.6518°W
Report Text: KAUO 190755Z AUTO 36006KT 10SM CLR 03/M02 A3016 RMK AO1
Loading
Personal Weather Stations






























Interactive Weather Map New forecast layout! Learn more

10-Day Weather Forecast

Advertisements
Track Severe Weather on mobile